sensor_id;sensor_type;location;lat;lon;timestamp;temperature;humidity
2497;DHT22;1259;48.306;14.374;2023-02-28T00:00:05;-2.10;99.90
2497;DHT22;1259;48.306;14.374;2023-02-28T00:02:35;-2.20;99.90
2497;DHT22;1259;48.306;14.374;2023-02-28T00:05:02;-2.30;99.90
2497;DHT22;1259;48.306;14.374;2023-02-28T00:07:29;-2.30;99.90
2497;DHT22;1259;48.306;14.374;2023-02-28T00:09:55;-2.30;99.90
2497;DHT22;1259;48.306;14.374;2023-02-28T00:12:22;-2.30;99.90
2497;DHT22;1259;48.306;14.374;2023-02-28T00:14:50;-2.40;99.90
2497;DHT22;1259;48.306;14.374;2023-02-28T00:17:17;-2.40;99.90
2497;DHT22;1259;48.306;14.374;2023-02-28T00:19:46;-2.30;99.90
2497;DHT22;1259;48.306;14.374;2023-02-28T00:22:13;-2.30;99.90
2497;DHT22;1259;48.306;14.374;2023-02-28T00:24:39;-2.30;99.90
2497;DHT22;1259;48.306;14.374;2023-02-28T00:27:06;-2.40;99.90
2497;DHT22;1259;48.306;14.374;2023-02-28T00:29:33;-2.40;99.90
2497;DHT22;1259;48.306;14.374;2023-02-28T00:32:01;-2.50;99.90
2497;DHT22;1259;48.306;14.374;2023-02-28T00:34:27;-2.50;99.90
2497;DHT22;1259;48.306;14.374;2023-02-28T00:36:54;-2.50;99.90
2497;DHT22;1259;48.306;14.374;2023-02-28T00:39:21;-2.50;99.90
2497;DHT22;1259;48.306;14.374;2023-02-28T00:41:47;-2.50;99.90
2497;DHT22;1259;48.306;14.374;2023-02-28T00:44:14;-2.50;99.90
2497;DHT22;1259;48.306;14.374;2023-02-28T00:46:41;-2.50;99.90
2497;DHT22;1259;48.306;14.374;2023-02-28T00:49:09;-2.50;99.90
2497;DHT22;1259;48.306;14.374;2023-02-28T00:51:36;-2.50;99.90
2497;DHT22;1259;48.306;14.374;2023-02-28T00:54:02;-2.50;99.90
2497;DHT22;1259;48.306;14.374;2023-02-28T00:56:29;-2.50;99.90
2497;DHT22;1259;48.306;14.374;2023-02-28T00:58:56;-2.50;99.90
2497;DHT22;1259;48.306;14.374;2023-02-28T01:01:22;-2.50;99.90
2497;DHT22;1259;48.306;14.374;2023-02-28T01:03:49;-2.50;99.90
2497;DHT22;1259;48.306;14.374;2023-02-28T01:06:17;-2.60;99.90
2497;DHT22;1259;48.306;14.374;2023-02-28T01:08:44;-2.60;99.90
2497;DHT22;1259;48.306;14.374;2023-02-28T01:11:11;-2.60;99.90
2497;DHT22;1259;48.306;14.374;2023-02-28T01:13:38;-2.60;99.90
2497;DHT22;1259;48.306;14.374;2023-02-28T01:16:05;-2.60;99.90
2497;DHT22;1259;48.306;14.374;2023-02-28T01:18:32;-2.60;99.90
2497;DHT22;1259;48.306;14.374;2023-02-28T01:21:02;-2.60;99.90
2497;DHT22;1259;48.306;14.374;2023-02-28T01:23:30;-2.60;99.90
2497;DHT22;1259;48.306;14.374;2023-02-28T01:26:03;-2.70;99.90
2497;DHT22;1259;48.306;14.374;2023-02-28T01:28:29;-2.70;99.90
2497;DHT22;1259;48.306;14.374;2023-02-28T01:30:56;-2.70;99.90
2497;DHT22;1259;48.306;14.374;2023-02-28T01:33:23;-2.70;99.90
2497;DHT22;1259;48.306;14.374;2023-02-28T01:35:50;-2.70;99.90
2497;DHT22;1259;48.306;14.374;2023-02-28T01:38:23;-2.70;99.90
2497;DHT22;1259;48.306;14.374;2023-02-28T01:40:51;-2.80;99.90
2497;DHT22;1259;48.306;14.374;2023-02-28T01:43:22;-2.80;99.90
2497;DHT22;1259;48.306;14.374;2023-02-28T01:45:49;-2.80;99.90
2497;DHT22;1259;48.306;14.374;2023-02-28T01:48:16;-2.80;99.90
2497;DHT22;1259;48.306;14.374;2023-02-28T01:50:43;-2.80;99.90
2497;DHT22;1259;48.306;14.374;2023-02-28T01:53:13;-2.80;99.90
2497;DHT22;1259;48.306;14.374;2023-02-28T01:55:41;-2.80;99.90
2497;DHT22;1259;48.306;14.374;2023-02-28T01:58:10;-2.80;99.90
2497;DHT22;1259;48.306;14.374;2023-02-28T02:00:37;-2.80;99.90
2497;DHT22;1259;48.306;14.374;2023-02-28T02:03:07;-2.90;99.90
2497;DHT22;1259;48.306;14.374;2023-02-28T02:05:34;-2.90;99.90
2497;DHT22;1259;48.306;14.374;2023-02-28T02:08:04;-2.90;99.90
2497;DHT22;1259;48.306;14.374;2023-02-28T02:10:32;-2.90;99.90
2497;DHT22;1259;48.306;14.374;2023-02-28T02:13:03;-2.90;99.90
2497;DHT22;1259;48.306;14.374;2023-02-28T02:15:33;-2.90;99.90
2497;DHT22;1259;48.306;14.374;2023-02-28T02:18:02;-2.90;99.90
2497;DHT22;1259;48.306;14.374;2023-02-28T02:26:25;-2.90;99.90
2497;DHT22;1259;48.306;14.374;2023-02-28T02:29:03;-2.90;99.90
2497;DHT22;1259;48.306;14.374;2023-02-28T02:31:49;-2.90;99.90
2497;DHT22;1259;48.306;14.374;2023-02-28T02:34:28;-3.00;99.90
2497;DHT22;1259;48.306;14.374;2023-02-28T02:36:58;-3.00;99.90
2497;DHT22;1259;48.306;14.374;2023-02-28T02:39:27;-3.00;99.90
2497;DHT22;1259;48.306;14.374;2023-02-28T02:41:57;-3.00;99.90
2497;DHT22;1259;48.306;14.374;2023-02-28T02:44:26;-3.00;99.90
2497;DHT22;1259;48.306;14.374;2023-02-28T02:46:54;-3.00;99.90
2497;DHT22;1259;48.306;14.374;2023-02-28T02:49:22;-3.00;99.90
2497;DHT22;1259;48.306;14.374;2023-02-28T02:51:52;-3.00;99.90
2497;DHT22;1259;48.306;14.374;2023-02-28T02:54:20;-3.00;99.90
2497;DHT22;1259;48.306;14.374;2023-02-28T02:56:48;-3.10;99.90
2497;DHT22;1259;48.306;14.374;2023-02-28T02:59:16;-3.10;99.90
2497;DHT22;1259;48.306;14.374;2023-02-28T03:01:46;-3.10;99.90
2497;DHT22;1259;48.306;14.374;2023-02-28T03:04:16;-3.10;99.90
2497;DHT22;1259;48.306;14.374;2023-02-28T03:06:43;-3.10;99.90
2497;DHT22;1259;48.306;14.374;2023-02-28T03:09:11;-3.10;99.90
2497;DHT22;1259;48.306;14.374;2023-02-28T03:11:38;-3.10;99.90
2497;DHT22;1259;48.306;14.374;2023-02-28T03:14:09;-3.10;99.90
2497;DHT22;1259;48.306;14.374;2023-02-28T03:19:23;-3.20;99.90
2497;DHT22;1259;48.306;14.374;2023-02-28T03:21:57;-3.10;99.90
2497;DHT22;1259;48.306;14.374;2023-02-28T03:24:31;-3.10;99.90
2497;DHT22;1259;48.306;14.374;2023-02-28T03:27:03;-3.20;99.90
2497;DHT22;1259;48.306;14.374;2023-02-28T03:29:32;-3.10;99.90
2497;DHT22;1259;48.306;14.374;2023-02-28T03:32:02;-3.20;99.90
2497;DHT22;1259;48.306;14.374;2023-02-28T03:34:31;-3.20;99.90
2497;DHT22;1259;48.306;14.374;2023-02-28T03:37:00;-3.20;99.90
2497;DHT22;1259;48.306;14.374;2023-02-28T03:39:28;-3.20;99.90
2497;DHT22;1259;48.306;14.374;2023-02-28T03:41:58;-3.20;99.90
2497;DHT22;1259;48.306;14.374;2023-02-28T03:44:26;-3.30;99.90
2497;DHT22;1259;48.306;14.374;2023-02-28T03:46:56;-3.30;99.90
2497;DHT22;1259;48.306;14.374;2023-02-28T03:49:26;-3.30;99.90
2497;DHT22;1259;48.306;14.374;2023-02-28T03:51:54;-3.30;99.90
2497;DHT22;1259;48.306;14.374;2023-02-28T03:54:23;-3.20;99.90
2497;DHT22;1259;48.306;14.374;2023-02-28T03:56:54;-3.20;99.90
2497;DHT22;1259;48.306;14.374;2023-02-28T03:59:25;-3.30;99.90
2497;DHT22;1259;48.306;14.374;2023-02-28T04:01:53;-3.30;99.90
2497;DHT22;1259;48.306;14.374;2023-02-28T04:04:20;-3.30;99.90
2497;DHT22;1259;48.306;14.374;2023-02-28T04:06:49;-3.30;99.90
2497;DHT22;1259;48.306;14.374;2023-02-28T04:09:16;-3.30;99.90
2497;DHT22;1259;48.306;14.374;2023-02-28T04:11:44;-3.30;99.90
2497;DHT22;1259;48.306;14.374;2023-02-28T04:14:11;-3.30;99.90
2497;DHT22;1259;48.306;14.374;2023-02-28T04:16:40;-3.30;99.90
2497;DHT22;1259;48.306;14.374;2023-02-28T04:19:07;-3.20;99.90
2497;DHT22;1259;48.306;14.374;2023-02-28T04:21:34;-3.20;99.90
2497;DHT22;1259;48.306;14.374;2023-02-28T04:24:02;-3.30;99.90
2497;DHT22;1259;48.306;14.374;2023-02-28T04:26:29;-3.30;99.90
2497;DHT22;1259;48.306;14.374;2023-02-28T04:28:56;-3.30;99.90
2497;DHT22;1259;48.306;14.374;2023-02-28T04:31:22;-3.30;99.90
2497;DHT22;1259;48.306;14.374;2023-02-28T04:33:50;-3.20;99.90
2497;DHT22;1259;48.306;14.374;2023-02-28T04:36:18;-3.30;99.90
2497;DHT22;1259;48.306;14.374;2023-02-28T04:38:45;-3.30;99.90
2497;DHT22;1259;48.306;14.374;2023-02-28T04:41:12;-3.30;99.90
2497;DHT22;1259;48.306;14.374;2023-02-28T04:43:39;-3.30;99.90
2497;DHT22;1259;48.306;14.374;2023-02-28T04:46:05;-3.30;99.90
2497;DHT22;1259;48.306;14.374;2023-02-28T04:48:33;-3.40;99.90
2497;DHT22;1259;48.306;14.374;2023-02-28T04:51:02;-3.40;99.90
2497;DHT22;1259;48.306;14.374;2023-02-28T04:53:29;-3.40;99.90
2497;DHT22;1259;48.306;14.374;2023-02-28T04:55:56;-3.30;99.90
2497;DHT22;1259;48.306;14.374;2023-02-28T04:58:23;-3.30;99.90
2497;DHT22;1259;48.306;14.374;2023-02-28T05:00:50;-3.30;99.90
2497;DHT22;1259;48.306;14.374;2023-02-28T05:03:17;-3.30;99.90
2497;DHT22;1259;48.306;14.374;2023-02-28T05:05:44;-3.30;99.90
2497;DHT22;1259;48.306;14.374;2023-02-28T05:08:12;-3.30;99.90
2497;DHT22;1259;48.306;14.374;2023-02-28T05:10:39;-3.40;99.90
2497;DHT22;1259;48.306;14.374;2023-02-28T05:13:06;-3.30;99.90
2497;DHT22;1259;48.306;14.374;2023-02-28T05:15:32;-3.40;99.90
2497;DHT22;1259;48.306;14.374;2023-02-28T05:17:59;-3.40;99.90
2497;DHT22;1259;48.306;14.374;2023-02-28T05:20:26;-3.40;99.90
2497;DHT22;1259;48.306;14.374;2023-02-28T05:22:52;-3.40;99.90
2497;DHT22;1259;48.306;14.374;2023-02-28T05:25:21;-3.40;99.90
2497;DHT22;1259;48.306;14.374;2023-02-28T05:27:48;-3.40;99.90
2497;DHT22;1259;48.306;14.374;2023-02-28T05:30:15;-3.40;99.90
2497;DHT22;1259;48.306;14.374;2023-02-28T05:32:42;-3.40;99.90
2497;DHT22;1259;48.306;14.374;2023-02-28T05:35:09;-3.40;99.90
2497;DHT22;1259;48.306;14.374;2023-02-28T05:37:36;-3.40;99.90
2497;DHT22;1259;48.306;14.374;2023-02-28T05:40:03;-3.40;99.90
2497;DHT22;1259;48.306;14.374;2023-02-28T05:42:32;-3.40;99.90
2497;DHT22;1259;48.306;14.374;2023-02-28T05:44:59;-3.40;99.90
2497;DHT22;1259;48.306;14.374;2023-02-28T05:47:26;-3.50;99.90
2497;DHT22;1259;48.306;14.374;2023-02-28T05:49:52;-3.40;99.90
2497;DHT22;1259;48.306;14.374;2023-02-28T05:52:19;-3.40;99.90
2497;DHT22;1259;48.306;14.374;2023-02-28T05:54:46;-3.40;99.90
2497;DHT22;1259;48.306;14.374;2023-02-28T05:57:13;-3.30;99.90
2497;DHT22;1259;48.306;14.374;2023-02-28T05:59:41;-3.30;99.90
2497;DHT22;1259;48.306;14.374;2023-02-28T06:02:08;-3.20;99.90
2497;DHT22;1259;48.306;14.374;2023-02-28T06:04:37;-3.20;99.90
2497;DHT22;1259;48.306;14.374;2023-02-28T06:07:03;-3.20;99.90
2497;DHT22;1259;48.306;14.374;2023-02-28T06:09:30;-3.10;99.90
2497;DHT22;1259;48.306;14.374;2023-02-28T06:11:57;-3.10;99.90
2497;DHT22;1259;48.306;14.374;2023-02-28T06:14:24;-3.10;99.90
2497;DHT22;1259;48.306;14.374;2023-02-28T06:16:52;-3.10;99.90
2497;DHT22;1259;48.306;14.374;2023-02-28T06:19:18;-3.00;99.90
2497;DHT22;1259;48.306;14.374;2023-02-28T06:21:45;-3.00;99.90
2497;DHT22;1259;48.306;14.374;2023-02-28T06:24:16;-2.90;99.90
2497;DHT22;1259;48.306;14.374;2023-02-28T06:26:42;-2.90;99.90
2497;DHT22;1259;48.306;14.374;2023-02-28T06:29:09;-2.80;99.90
2497;DHT22;1259;48.306;14.374;2023-02-28T06:31:36;-2.80;99.90
2497;DHT22;1259;48.306;14.374;2023-02-28T06:34:04;-2.70;99.90
2497;DHT22;1259;48.306;14.374;2023-02-28T06:36:31;-2.70;99.90
2497;DHT22;1259;48.306;14.374;2023-02-28T06:38:58;-2.60;99.90
2497;DHT22;1259;48.306;14.374;2023-02-28T06:41:25;-2.60;99.90
2497;DHT22;1259;48.306;14.374;2023-02-28T06:43:52;-2.50;99.90
2497;DHT22;1259;48.306;14.374;2023-02-28T06:46:19;-2.50;99.90
2497;DHT22;1259;48.306;14.374;2023-02-28T06:48:46;-2.40;99.90
2497;DHT22;1259;48.306;14.374;2023-02-28T06:51:15;-2.40;99.90
2497;DHT22;1259;48.306;14.374;2023-02-28T06:53:42;-2.30;99.90
2497;DHT22;1259;48.306;14.374;2023-02-28T06:56:09;-2.30;99.90
2497;DHT22;1259;48.306;14.374;2023-02-28T06:58:36;-2.20;99.90
2497;DHT22;1259;48.306;14.374;2023-02-28T07:01:04;-2.20;99.90
2497;DHT22;1259;48.306;14.374;2023-02-28T07:03:31;-2.20;99.90
2497;DHT22;1259;48.306;14.374;2023-02-28T07:05:58;-2.10;99.90
2497;DHT22;1259;48.306;14.374;2023-02-28T07:08:26;-2.10;99.90
2497;DHT22;1259;48.306;14.374;2023-02-28T07:10:53;-2.00;99.90
2497;DHT22;1259;48.306;14.374;2023-02-28T07:13:20;-2.00;99.90
2497;DHT22;1259;48.306;14.374;2023-02-28T07:15:52;-1.90;99.90
2497;DHT22;1259;48.306;14.374;2023-02-28T07:18:19;-1.90;99.90
2497;DHT22;1259;48.306;14.374;2023-02-28T07:20:45;-1.80;99.90
2497;DHT22;1259;48.306;14.374;2023-02-28T07:23:12;-1.70;99.90
2497;DHT22;1259;48.306;14.374;2023-02-28T07:25:40;-1.60;99.90
2497;DHT22;1259;48.306;14.374;2023-02-28T07:28:07;-1.70;99.90
2497;DHT22;1259;48.306;14.374;2023-02-28T07:30:33;-1.50;99.90
2497;DHT22;1259;48.306;14.374;2023-02-28T07:33:00;-1.30;99.90
2497;DHT22;1259;48.306;14.374;2023-02-28T07:35:27;-1.20;99.90
2497;DHT22;1259;48.306;14.374;2023-02-28T07:37:53;-1.30;99.90
2497;DHT22;1259;48.306;14.374;2023-02-28T07:40:20;-1.30;99.90
2497;DHT22;1259;48.306;14.374;2023-02-28T07:42:48;-1.20;99.90
2497;DHT22;1259;48.306;14.374;2023-02-28T07:45:15;-1.00;99.90
2497;DHT22;1259;48.306;14.374;2023-02-28T07:47:42;-1.00;99.90
2497;DHT22;1259;48.306;14.374;2023-02-28T07:50:10;-0.80;99.90
2497;DHT22;1259;48.306;14.374;2023-02-28T07:52:37;-1.00;99.90
2497;DHT22;1259;48.306;14.374;2023-02-28T07:55:05;-0.90;99.90
2497;DHT22;1259;48.306;14.374;2023-02-28T07:57:32;-0.70;99.90
2497;DHT22;1259;48.306;14.374;2023-02-28T08:00:00;-0.60;99.90
2497;DHT22;1259;48.306;14.374;2023-02-28T08:02:28;-0.50;99.90
2497;DHT22;1259;48.306;14.374;2023-02-28T08:04:55;-0.70;99.90
2497;DHT22;1259;48.306;14.374;2023-02-28T08:07:22;-0.50;99.90
2497;DHT22;1259;48.306;14.374;2023-02-28T08:09:48;-0.30;99.90
2497;DHT22;1259;48.306;14.374;2023-02-28T08:12:15;-0.10;99.90
2497;DHT22;1259;48.306;14.374;2023-02-28T08:14:41;-0.30;99.90
2497;DHT22;1259;48.306;14.374;2023-02-28T08:17:10;-0.10;99.90
2497;DHT22;1259;48.306;14.374;2023-02-28T08:19:37;-0.20;99.90
2497;DHT22;1259;48.306;14.374;2023-02-28T08:22:03;0.00;99.90
2497;DHT22;1259;48.306;14.374;2023-02-28T08:24:30;0.20;99.90
2497;DHT22;1259;48.306;14.374;2023-02-28T08:26:57;0.50;99.90
2497;DHT22;1259;48.306;14.374;2023-02-28T08:29:23;0.30;99.90
2497;DHT22;1259;48.306;14.374;2023-02-28T08:31:50;0.10;99.90
2497;DHT22;1259;48.306;14.374;2023-02-28T08:34:18;0.20;99.90
2497;DHT22;1259;48.306;14.374;2023-02-28T08:36:45;0.50;99.90
2497;DHT22;1259;48.306;14.374;2023-02-28T08:39:11;0.60;99.90
2497;DHT22;1259;48.306;14.374;2023-02-28T08:41:38;0.50;99.90
2497;DHT22;1259;48.306;14.374;2023-02-28T08:44:05;0.40;99.90
2497;DHT22;1259;48.306;14.374;2023-02-28T08:46:31;0.20;99.90
2497;DHT22;1259;48.306;14.374;2023-02-28T08:48:58;0.40;99.90
2497;DHT22;1259;48.306;14.374;2023-02-28T08:51:28;0.40;99.90
2497;DHT22;1259;48.306;14.374;2023-02-28T08:53:55;0.70;99.90
2497;DHT22;1259;48.306;14.374;2023-02-28T08:56:22;0.60;99.90
2497;DHT22;1259;48.306;14.374;2023-02-28T08:58:49;0.70;99.90
2497;DHT22;1259;48.306;14.374;2023-02-28T09:01:16;0.90;99.90
2497;DHT22;1259;48.306;14.374;2023-02-28T09:03:44;0.70;99.90
2497;DHT22;1259;48.306;14.374;2023-02-28T09:06:12;1.00;99.90
2497;DHT22;1259;48.306;14.374;2023-02-28T09:08:40;1.10;99.90
2497;DHT22;1259;48.306;14.374;2023-02-28T09:11:08;0.70;98.90
2497;DHT22;1259;48.306;14.374;2023-02-28T09:13:34;1.00;99.90
2497;DHT22;1259;48.306;14.374;2023-02-28T09:16:02;1.00;99.90
2497;DHT22;1259;48.306;14.374;2023-02-28T09:18:29;0.80;99.90
2497;DHT22;1259;48.306;14.374;2023-02-28T09:20:56;1.10;99.90
2497;DHT22;1259;48.306;14.374;2023-02-28T09:23:23;1.40;99.90
2497;DHT22;1259;48.306;14.374;2023-02-28T09:25:52;1.20;99.60
2497;DHT22;1259;48.306;14.374;2023-02-28T09:28:19;1.30;99.80
2497;DHT22;1259;48.306;14.374;2023-02-28T09:30:48;1.20;99.00
2497;DHT22;1259;48.306;14.374;2023-02-28T09:33:15;1.70;99.90
2497;DHT22;1259;48.306;14.374;2023-02-28T09:35:42;1.60;99.70
2497;DHT22;1259;48.306;14.374;2023-02-28T09:38:09;1.90;99.90
2497;DHT22;1259;48.306;14.374;2023-02-28T09:40:36;2.10;99.90
2497;DHT22;1259;48.306;14.374;2023-02-28T09:43:05;2.20;98.70
2497;DHT22;1259;48.306;14.374;2023-02-28T09:45:33;2.10;98.40
2497;DHT22;1259;48.306;14.374;2023-02-28T09:48:03;2.10;98.00
2497;DHT22;1259;48.306;14.374;2023-02-28T09:50:31;2.00;97.90
2497;DHT22;1259;48.306;14.374;2023-02-28T09:52:59;1.70;98.30
2497;DHT22;1259;48.306;14.374;2023-02-28T09:55:29;1.70;96.80
2497;DHT22;1259;48.306;14.374;2023-02-28T09:57:56;1.60;98.40
2497;DHT22;1259;48.306;14.374;2023-02-28T10:00:28;2.00;98.70
2497;DHT22;1259;48.306;14.374;2023-02-28T10:05:47;1.80;96.30
2497;DHT22;1259;48.306;14.374;2023-02-28T10:08:18;1.90;98.00
2497;DHT22;1259;48.306;14.374;2023-02-28T10:10:47;2.00;98.20
2497;DHT22;1259;48.306;14.374;2023-02-28T10:13:16;2.20;99.10
2497;DHT22;1259;48.306;14.374;2023-02-28T10:15:46;2.40;97.50
2497;DHT22;1259;48.306;14.374;2023-02-28T10:18:14;2.60;97.40
2497;DHT22;1259;48.306;14.374;2023-02-28T10:20:42;2.50;97.40
2497;DHT22;1259;48.306;14.374;2023-02-28T10:23:11;2.60;97.70
2497;DHT22;1259;48.306;14.374;2023-02-28T10:25:39;2.90;97.70
2497;DHT22;1259;48.306;14.374;2023-02-28T10:28:09;2.30;95.70
2497;DHT22;1259;48.306;14.374;2023-02-28T10:30:36;2.40;97.60
2497;DHT22;1259;48.306;14.374;2023-02-28T10:33:08;2.80;98.10
2497;DHT22;1259;48.306;14.374;2023-02-28T10:35:40;3.10;98.30
2497;DHT22;1259;48.306;14.374;2023-02-28T10:38:10;3.00;96.70
2497;DHT22;1259;48.306;14.374;2023-02-28T10:40:40;2.50;95.10
2497;DHT22;1259;48.306;14.374;2023-02-28T10:43:16;2.70;96.20
2497;DHT22;1259;48.306;14.374;2023-02-28T10:45:52;3.00;97.20
2497;DHT22;1259;48.306;14.374;2023-02-28T10:48:37;3.30;95.60
2497;DHT22;1259;48.306;14.374;2023-02-28T10:51:04;3.10;94.70
2497;DHT22;1259;48.306;14.374;2023-02-28T10:53:33;2.90;95.00
2497;DHT22;1259;48.306;14.374;2023-02-28T10:56:01;2.80;94.20
2497;DHT22;1259;48.306;14.374;2023-02-28T10:58:28;2.80;94.30
2497;DHT22;1259;48.306;14.374;2023-02-28T11:00:55;3.10;95.50
2497;DHT22;1259;48.306;14.374;2023-02-28T11:03:23;3.10;94.40
2497;DHT22;1259;48.306;14.374;2023-02-28T11:05:52;3.10;93.40
2497;DHT22;1259;48.306;14.374;2023-02-28T11:08:18;3.20;94.40
2497;DHT22;1259;48.306;14.374;2023-02-28T11:10:45;3.60;95.10
2497;DHT22;1259;48.306;14.374;2023-02-28T11:13:16;3.90;93.90
2497;DHT22;1259;48.306;14.374;2023-02-28T11:15:43;3.90;94.30
2497;DHT22;1259;48.306;14.374;2023-02-28T11:18:20;3.70;92.80
2497;DHT22;1259;48.306;14.374;2023-02-28T11:20:47;3.40;93.60
2497;DHT22;1259;48.306;14.374;2023-02-28T11:23:16;3.70;94.30
2497;DHT22;1259;48.306;14.374;2023-02-28T11:25:46;4.00;94.60
2497;DHT22;1259;48.306;14.374;2023-02-28T11:28:23;4.30;93.40
2497;DHT22;1259;48.306;14.374;2023-02-28T11:30:59;4.20;92.20
2497;DHT22;1259;48.306;14.374;2023-02-28T11:33:27;4.20;91.90
2497;DHT22;1259;48.306;14.374;2023-02-28T11:35:54;4.20;92.50
2497;DHT22;1259;48.306;14.374;2023-02-28T11:38:25;4.40;92.60
2497;DHT22;1259;48.306;14.374;2023-02-28T11:40:57;4.50;92.30
2497;DHT22;1259;48.306;14.374;2023-02-28T11:43:32;4.50;92.90
2497;DHT22;1259;48.306;14.374;2023-02-28T11:46:12;4.50;91.90
2497;DHT22;1259;48.306;14.374;2023-02-28T11:48:44;4.40;91.90
2497;DHT22;1259;48.306;14.374;2023-02-28T11:51:14;4.70;93.60
2497;DHT22;1259;48.306;14.374;2023-02-28T11:56:25;4.80;92.00
2497;DHT22;1259;48.306;14.374;2023-02-28T11:58:57;4.70;91.80
2497;DHT22;1259;48.306;14.374;2023-02-28T12:01:28;5.00;93.10
2497;DHT22;1259;48.306;14.374;2023-02-28T12:04:03;4.70;91.70
2497;DHT22;1259;48.306;14.374;2023-02-28T12:06:32;5.00;93.50
2497;DHT22;1259;48.306;14.374;2023-02-28T12:09:04;4.90;92.00
2497;DHT22;1259;48.306;14.374;2023-02-28T12:11:43;5.00;91.90
2497;DHT22;1259;48.306;14.374;2023-02-28T12:14:21;4.60;90.40
2497;DHT22;1259;48.306;14.374;2023-02-28T12:16:54;4.60;91.00
2497;DHT22;1259;48.306;14.374;2023-02-28T12:19:25;4.90;91.60
2497;DHT22;1259;48.306;14.374;2023-02-28T12:21:57;4.80;92.50
2497;DHT22;1259;48.306;14.374;2023-02-28T12:24:29;5.00;92.40
2497;DHT22;1259;48.306;14.374;2023-02-28T12:27:00;5.30;92.50
2497;DHT22;1259;48.306;14.374;2023-02-28T12:29:29;5.40;90.20
2497;DHT22;1259;48.306;14.374;2023-02-28T12:31:58;5.40;91.90
2497;DHT22;1259;48.306;14.374;2023-02-28T12:34:27;5.60;92.00
2497;DHT22;1259;48.306;14.374;2023-02-28T12:36:55;5.50;90.80
2497;DHT22;1259;48.306;14.374;2023-02-28T12:39:23;5.50;91.40
2497;DHT22;1259;48.306;14.374;2023-02-28T12:41:53;5.80;92.50
2497;DHT22;1259;48.306;14.374;2023-02-28T12:44:23;5.50;89.80
2497;DHT22;1259;48.306;14.374;2023-02-28T12:46:53;5.60;91.40
2497;DHT22;1259;48.306;14.374;2023-02-28T12:49:22;4.80;91.60
2497;DHT22;1259;48.306;14.374;2023-02-28T12:51:49;4.90;93.20
2497;DHT22;1259;48.306;14.374;2023-02-28T12:54:19;5.20;92.00
2497;DHT22;1259;48.306;14.374;2023-02-28T12:56:47;4.70;90.80
2497;DHT22;1259;48.306;14.374;2023-02-28T12:59:19;4.80;91.70
2497;DHT22;1259;48.306;14.374;2023-02-28T13:01:54;4.50;92.00
2497;DHT22;1259;48.306;14.374;2023-02-28T13:04:36;4.40;92.10
2497;DHT22;1259;48.306;14.374;2023-02-28T13:07:10;4.20;92.90
2497;DHT22;1259;48.306;14.374;2023-02-28T13:09:39;4.10;92.10
2497;DHT22;1259;48.306;14.374;2023-02-28T13:12:12;4.10;91.80
2497;DHT22;1259;48.306;14.374;2023-02-28T13:14:39;4.40;93.00
2497;DHT22;1259;48.306;14.374;2023-02-28T13:17:11;4.50;93.10
2497;DHT22;1259;48.306;14.374;2023-02-28T13:19:39;5.10;93.50
2497;DHT22;1259;48.306;14.374;2023-02-28T13:22:15;4.80;91.60
2497;DHT22;1259;48.306;14.374;2023-02-28T13:24:44;4.60;91.10
2497;DHT22;1259;48.306;14.374;2023-02-28T13:27:22;4.70;92.80
2497;DHT22;1259;48.306;14.374;2023-02-28T13:29:50;4.60;92.40
2497;DHT22;1259;48.306;14.374;2023-02-28T13:32:32;4.20;91.40
2497;DHT22;1259;48.306;14.374;2023-02-28T13:38:15;4.60;92.20
2497;DHT22;1259;48.306;14.374;2023-02-28T13:40:43;4.00;91.50
2497;DHT22;1259;48.306;14.374;2023-02-28T13:43:09;3.90;92.00
2497;DHT22;1259;48.306;14.374;2023-02-28T13:45:36;3.70;92.30
2497;DHT22;1259;48.306;14.374;2023-02-28T13:48:14;3.70;92.50
2497;DHT22;1259;48.306;14.374;2023-02-28T13:50:42;3.90;92.20
2497;DHT22;1259;48.306;14.374;2023-02-28T13:53:24;3.80;91.20
2497;DHT22;1259;48.306;14.374;2023-02-28T13:55:57;3.80;92.40
2497;DHT22;1259;48.306;14.374;2023-02-28T13:58:34;3.90;93.10
2497;DHT22;1259;48.306;14.374;2023-02-28T14:01:08;3.90;92.10
2497;DHT22;1259;48.306;14.374;2023-02-28T14:03:46;4.00;92.90
2497;DHT22;1259;48.306;14.374;2023-02-28T14:06:17;4.00;92.20
2497;DHT22;1259;48.306;14.374;2023-02-28T14:08:50;4.10;92.20
2497;DHT22;1259;48.306;14.374;2023-02-28T14:11:29;4.00;91.50
2497;DHT22;1259;48.306;14.374;2023-02-28T14:13:56;4.00;93.20
2497;DHT22;1259;48.306;14.374;2023-02-28T14:16:23;4.10;92.10
2497;DHT22;1259;48.306;14.374;2023-02-28T14:18:55;4.00;92.50
2497;DHT22;1259;48.306;14.374;2023-02-28T14:21:23;3.90;92.20
2497;DHT22;1259;48.306;14.374;2023-02-28T14:24:15;3.70;92.30
2497;DHT22;1259;48.306;14.374;2023-02-28T14:26:48;3.70;94.00
2497;DHT22;1259;48.306;14.374;2023-02-28T14:29:19;3.40;93.30
2497;DHT22;1259;48.306;14.374;2023-02-28T14:31:52;3.40;94.10
2497;DHT22;1259;48.306;14.374;2023-02-28T14:34:29;3.50;94.00
2497;DHT22;1259;48.306;14.374;2023-02-28T14:36:58;3.40;93.20
2497;DHT22;1259;48.306;14.374;2023-02-28T14:39:27;3.40;93.70
2497;DHT22;1259;48.306;14.374;2023-02-28T14:41:56;3.50;94.80
2497;DHT22;1259;48.306;14.374;2023-02-28T14:44:25;3.50;93.80
2497;DHT22;1259;48.306;14.374;2023-02-28T14:46:52;3.60;94.50
2497;DHT22;1259;48.306;14.374;2023-02-28T14:49:20;3.80;95.60
2497;DHT22;1259;48.306;14.374;2023-02-28T14:51:49;3.80;94.70
2497;DHT22;1259;48.306;14.374;2023-02-28T14:54:16;3.80;93.80
2497;DHT22;1259;48.306;14.374;2023-02-28T14:56:48;3.40;93.70
2497;DHT22;1259;48.306;14.374;2023-02-28T14:59:23;3.10;94.80
2497;DHT22;1259;48.306;14.374;2023-02-28T15:01:50;3.20;95.40
2497;DHT22;1259;48.306;14.374;2023-02-28T15:04:18;3.10;95.20
2497;DHT22;1259;48.306;14.374;2023-02-28T15:06:47;2.90;95.20
2497;DHT22;1259;48.306;14.374;2023-02-28T15:09:34;2.80;96.60
2497;DHT22;1259;48.306;14.374;2023-02-28T15:12:01;2.70;96.20
2497;DHT22;1259;48.306;14.374;2023-02-28T15:14:28;2.70;96.20
2497;DHT22;1259;48.306;14.374;2023-02-28T15:16:56;2.60;96.80
2497;DHT22;1259;48.306;14.374;2023-02-28T15:19:25;2.60;97.50
2497;DHT22;1259;48.306;14.374;2023-02-28T15:21:53;2.60;97.40
2497;DHT22;1259;48.306;14.374;2023-02-28T15:24:24;2.50;98.00
2497;DHT22;1259;48.306;14.374;2023-02-28T15:26:57;2.50;97.20
2497;DHT22;1259;48.306;14.374;2023-02-28T15:29:25;2.50;97.70
2497;DHT22;1259;48.306;14.374;2023-02-28T15:31:55;2.50;97.50
2497;DHT22;1259;48.306;14.374;2023-02-28T15:34:25;2.50;98.40
2497;DHT22;1259;48.306;14.374;2023-02-28T15:36:53;2.50;98.30
2497;DHT22;1259;48.306;14.374;2023-02-28T15:39:20;2.40;97.60
2497;DHT22;1259;48.306;14.374;2023-02-28T15:41:47;2.30;97.50
2497;DHT22;1259;48.306;14.374;2023-02-28T15:44:16;2.20;97.80
2497;DHT22;1259;48.306;14.374;2023-02-28T15:46:45;2.20;98.00
2497;DHT22;1259;48.306;14.374;2023-02-28T15:49:20;2.20;98.10
2497;DHT22;1259;48.306;14.374;2023-02-28T15:51:48;2.10;98.20
2497;DHT22;1259;48.306;14.374;2023-02-28T15:54:16;2.10;98.70
2497;DHT22;1259;48.306;14.374;2023-02-28T15:56:46;2.00;98.80
2497;DHT22;1259;48.306;14.374;2023-02-28T15:59:17;2.00;98.40
2497;DHT22;1259;48.306;14.374;2023-02-28T16:01:44;1.90;99.10
2497;DHT22;1259;48.306;14.374;2023-02-28T16:04:13;1.90;98.90
2497;DHT22;1259;48.306;14.374;2023-02-28T16:06:40;1.80;99.80
2497;DHT22;1259;48.306;14.374;2023-02-28T16:09:09;1.90;99.40
2497;DHT22;1259;48.306;14.374;2023-02-28T16:11:38;1.80;99.90
2497;DHT22;1259;48.306;14.374;2023-02-28T16:14:07;1.80;99.90
2497;DHT22;1259;48.306;14.374;2023-02-28T16:16:41;1.80;99.90
2497;DHT22;1259;48.306;14.374;2023-02-28T16:19:08;1.80;99.90
2497;DHT22;1259;48.306;14.374;2023-02-28T16:21:34;1.70;99.80